createdAt,value
2017-11-01T00:01:17.459Z,14.40
2017-11-01T00:03:44.953Z,16.00
2017-11-01T00:06:12.575Z,17.70
2017-11-01T00:08:40.069Z,16.80
2017-11-01T00:11:07.598Z,16.33
2017-11-01T00:13:35.123Z,17.30
2017-11-01T00:16:03.423Z,16.33
2017-11-01T00:18:30.921Z,15.53
2017-11-01T00:20:58.415Z,16.07
2017-11-01T00:23:25.958Z,16.10
2017-11-01T00:25:53.451Z,17.07
2017-11-01T00:28:20.998Z,16.83
2017-11-01T00:30:48.502Z,17.20
2017-11-01T00:33:16.801Z,17.23
2017-11-01T00:35:44.318Z,16.00
2017-11-01T00:38:11.808Z,15.93
2017-11-01T00:40:39.339Z,16.70
2017-11-01T00:43:06.852Z,14.50
2017-11-01T00:45:34.392Z,15.20
2017-11-01T00:48:02.659Z,14.20
2017-11-01T00:50:30.975Z,14.70
2017-11-01T00:52:58.528Z,13.27
2017-11-01T00:55:26.031Z,15.50
2017-11-01T00:57:53.538Z,13.90
2017-11-01T01:00:21.075Z,13.80
2017-11-01T01:02:48.612Z,13.37
2017-11-01T01:05:16.128Z,13.80
2017-11-01T01:07:44.435Z,15.20
2017-11-01T01:10:11.944Z,13.87
2017-11-01T01:12:39.478Z,15.07
2017-11-01T01:15:07.032Z,14.57
2017-11-01T01:17:34.532Z,15.03
2017-11-01T01:20:02.062Z,14.30
2017-11-01T01:22:29.562Z,14.10
2017-11-01T01:24:57.085Z,14.10
2017-11-01T01:27:24.652Z,14.27
2017-11-01T01:29:52.155Z,14.80
2017-11-01T01:32:19.715Z,14.43
2017-11-01T01:34:47.206Z,14.57
2017-11-01T01:37:15.480Z,14.50
2017-11-01T01:39:43.022Z,14.80
2017-11-01T01:42:10.585Z,14.20
2017-11-01T01:44:38.115Z,15.03
2017-11-01T01:47:05.710Z,14.60
2017-11-01T01:49:33.235Z,14.90
2017-11-01T01:52:00.726Z,14.33
2017-11-01T01:54:28.242Z,13.80
2017-11-01T01:56:56.555Z,14.27
2017-11-01T01:59:24.084Z,13.67
2017-11-01T02:01:51.615Z,14.03
2017-11-01T02:04:19.104Z,15.20
2017-11-01T02:06:46.643Z,15.57
2017-11-01T02:09:14.143Z,13.87
2017-11-01T02:11:42.407Z,14.70
2017-11-01T02:14:09.937Z,15.27
2017-11-01T02:16:37.440Z,15.63
2017-11-01T02:19:04.982Z,16.40
2017-11-01T02:21:32.475Z,15.37
2017-11-01T02:24:00.746Z,14.10
2017-11-01T02:26:28.295Z,15.33
2017-11-01T02:28:55.799Z,14.73
2017-11-01T02:31:23.346Z,15.50
2017-11-01T02:33:51.619Z,15.17
2017-11-01T02:36:19.899Z,15.10
2017-11-01T02:38:48.225Z,13.47
2017-11-01T02:41:15.721Z,14.83
2017-11-01T02:43:43.269Z,14.50
2017-11-01T02:46:10.784Z,14.10
2017-11-01T02:48:39.078Z,14.47
2017-11-01T02:51:06.574Z,13.60
2017-11-01T02:53:34.094Z,14.37
2017-11-01T02:56:02.393Z,14.17
2017-11-01T02:58:29.894Z,13.90
2017-11-01T03:00:57.439Z,14.00
2017-11-01T03:03:24.937Z,11.77
2017-11-01T03:05:52.476Z,14.27
2017-11-01T03:08:20.037Z,14.87
2017-11-01T03:10:47.539Z,13.70
2017-11-01T03:13:15.234Z,13.97
2017-11-01T03:15:42.801Z,15.33
2017-11-01T03:18:10.363Z,13.47
2017-11-01T03:20:37.895Z,13.37
2017-11-01T03:23:05.419Z,14.10
2017-11-01T03:25:32.955Z,13.00
2017-11-01T03:28:00.527Z,14.93
2017-11-01T03:30:28.033Z,13.00
2017-11-01T03:32:55.555Z,13.93
2017-11-01T03:35:23.086Z,14.53
2017-11-01T03:37:50.609Z,14.03
2017-11-01T03:40:18.111Z,14.10
2017-11-01T03:42:45.675Z,14.33
2017-11-01T03:45:13.944Z,13.87
2017-11-01T03:47:41.472Z,14.43
2017-11-01T03:50:09.002Z,14.50
2017-11-01T03:52:36.548Z,14.47
2017-11-01T03:55:04.055Z,14.27
2017-11-01T03:57:31.593Z,13.70
2017-11-01T03:59:59.868Z,13.77
2017-11-01T04:02:28.130Z,14.23
2017-11-01T04:04:55.663Z,14.80
2017-11-01T04:07:23.184Z,13.70
2017-11-01T04:09:51.460Z,12.90
2017-11-01T04:12:19.731Z,12.73
2017-11-01T04:14:48.038Z,12.77
2017-11-01T04:17:15.627Z,14.50
2017-11-01T04:19:43.148Z,13.37
2017-11-01T04:22:11.416Z,13.53
2017-11-01T04:24:38.947Z,13.60
2017-11-01T04:27:06.474Z,14.50
2017-11-01T04:29:33.971Z,13.80
2017-11-01T04:32:01.547Z,13.73
2017-11-01T04:34:29.891Z,14.80
2017-11-01T04:36:57.403Z,14.27
2017-11-01T04:39:24.954Z,14.23
2017-11-01T04:41:52.467Z,13.70
2017-11-01T04:44:19.953Z,14.17
2017-11-01T04:46:47.475Z,14.90
2017-11-01T04:49:15.795Z,14.70
2017-11-01T04:51:43.313Z,14.23
2017-11-01T04:54:10.851Z,13.30
2017-11-01T04:56:41.427Z,14.40
2017-11-01T04:59:09.685Z,13.90
2017-11-01T05:01:38.136Z,14.43
2017-11-01T05:04:05.668Z,13.90
2017-11-01T05:06:33.195Z,13.70
2017-11-01T05:09:00.734Z,13.20
2017-11-01T05:11:33.957Z,14.07
2017-11-01T05:14:03.406Z,14.07
2017-11-01T05:16:32.798Z,14.30
2017-11-01T05:19:00.324Z,12.97
2017-11-01T05:21:27.883Z,14.80
2017-11-01T05:23:55.419Z,15.67
2017-11-01T05:26:22.923Z,14.23
2017-11-01T05:28:50.460Z,13.70
2017-11-01T05:31:19.808Z,13.37
2017-11-01T05:33:47.353Z,11.77
2017-11-01T05:36:14.847Z,12.10
2017-11-01T05:38:42.345Z,12.60
2017-11-01T05:41:09.878Z,13.80
2017-11-01T05:43:37.403Z,13.30
2017-11-01T05:46:04.975Z,13.40
2017-11-01T05:48:32.528Z,13.10
2017-11-01T05:51:00.033Z,12.83
2017-11-01T05:53:27.575Z,12.70
2017-11-01T05:55:56.988Z,12.30
2017-11-01T05:58:25.277Z,13.60
2017-11-01T06:00:53.556Z,12.37
2017-11-01T06:03:21.814Z,11.73
2017-11-01T06:05:49.409Z,11.77
2017-11-01T06:08:16.896Z,12.77
2017-11-01T06:10:44.431Z,12.77
2017-11-01T06:13:12.685Z,12.97
2017-11-01T06:15:40.199Z,12.40
2017-11-01T06:18:07.699Z,11.80
2017-11-01T06:20:35.183Z,13.40
2017-11-01T06:23:02.671Z,13.00
2017-11-01T06:25:30.201Z,12.37
2017-11-01T06:27:57.686Z,12.57
2017-11-01T06:30:26.000Z,13.47
2017-11-01T06:32:53.573Z,12.23
2017-11-01T06:35:21.092Z,12.03
2017-11-01T06:37:48.602Z,13.43
2017-11-01T06:40:16.719Z,13.40
2017-11-01T06:42:44.281Z,12.30
2017-11-01T06:45:11.820Z,13.03
2017-11-01T06:47:39.375Z,12.20
2017-11-01T06:50:06.937Z,14.03
2017-11-01T06:52:34.447Z,12.27
2017-11-01T06:55:02.732Z,12.80
2017-11-01T06:57:31.015Z,12.57
2017-11-01T06:59:58.608Z,11.20
2017-11-01T07:02:26.161Z,12.03
2017-11-01T07:04:54.566Z,12.57
2017-11-01T07:07:22.117Z,13.00
2017-11-01T07:09:49.647Z,11.40
2017-11-01T07:12:17.136Z,11.67
2017-11-01T07:14:44.736Z,10.90
2017-11-01T07:17:12.228Z,10.83
2017-11-01T07:19:39.750Z,11.50
2017-11-01T07:22:07.249Z,11.87
2017-11-01T07:24:34.797Z,11.83
2017-11-01T07:27:02.378Z,11.97
2017-11-01T07:29:29.872Z,12.67
2017-11-01T07:31:58.131Z,13.30
2017-11-01T07:34:25.673Z,13.27
2017-11-01T07:36:53.194Z,11.63
2017-11-01T07:39:20.700Z,13.23
2017-11-01T07:41:48.236Z,12.33
2017-11-01T07:44:15.727Z,14.17
2017-11-01T07:46:43.252Z,12.90
2017-11-01T07:49:10.747Z,14.50
2017-11-01T07:51:38.275Z,13.40
2017-11-01T07:54:05.799Z,14.87
2017-11-01T07:56:34.080Z,14.60
2017-11-01T07:59:01.618Z,13.70
2017-11-01T08:01:29.113Z,13.73
2017-11-01T08:03:57.415Z,14.50
2017-11-01T08:06:24.919Z,13.10
2017-11-01T08:08:52.442Z,13.00
2017-11-01T08:11:19.952Z,12.93
2017-11-01T08:13:47.443Z,13.03
2017-11-01T08:16:14.962Z,13.87
2017-11-01T08:18:42.466Z,13.67
2017-11-01T08:21:10.047Z,13.57
2017-11-01T08:23:38.321Z,13.30
2017-11-01T08:26:05.853Z,12.40
2017-11-01T08:28:33.352Z,13.27
2017-11-01T08:31:01.605Z,13.30
2017-11-01T08:33:29.148Z,14.80
2017-11-01T08:35:56.638Z,11.40
2017-11-01T08:38:24.202Z,13.80
2017-11-01T08:40:51.704Z,13.93
2017-11-01T08:43:19.200Z,12.33
2017-11-01T08:45:46.715Z,11.93
2017-11-01T08:48:14.982Z,13.47
2017-11-01T08:50:43.303Z,13.07
2017-11-01T08:53:10.881Z,13.67
2017-11-01T08:55:38.417Z,12.57
2017-11-01T08:58:06.671Z,12.67
2017-11-01T09:00:34.216Z,12.03
2017-11-01T09:03:01.917Z,13.43
2017-11-01T09:05:30.183Z,12.03
2017-11-01T09:07:58.118Z,11.10
2017-11-01T09:10:25.669Z,11.70
2017-11-01T09:12:53.229Z,12.10
2017-11-01T09:15:20.774Z,11.40
2017-11-01T09:17:49.162Z,10.80
2017-11-01T09:20:16.672Z,10.73
2017-11-01T09:22:44.187Z,11.80
2017-11-01T09:25:11.728Z,10.97
2017-11-01T09:27:40.024Z,10.80
2017-11-01T09:30:07.534Z,11.47
2017-11-01T09:32:35.040Z,10.83
2017-11-01T09:35:03.254Z,10.10
2017-11-01T09:37:31.568Z,9.77
2017-11-01T09:39:59.147Z,10.43
2017-11-01T09:42:26.667Z,10.43
2017-11-01T09:44:55.086Z,9.80
2017-11-01T09:47:22.622Z,10.63
2017-11-01T09:49:50.920Z,9.73
2017-11-01T09:52:18.456Z,11.63
2017-11-01T09:54:45.988Z,11.83
2017-11-01T09:57:13.511Z,11.07
2017-11-01T09:59:41.815Z,11.90
2017-11-01T10:02:09.324Z,12.23
2017-11-01T10:04:36.860Z,10.73
2017-11-01T10:07:04.420Z,10.90
2017-11-01T10:09:31.925Z,9.80
2017-11-01T10:11:59.494Z,9.57
2017-11-01T10:14:27.005Z,10.80
2017-11-01T10:16:54.559Z,10.77
2017-11-01T10:19:22.073Z,10.00
2017-11-01T10:21:49.586Z,9.70
2017-11-01T10:24:17.138Z,9.90
2017-11-01T10:26:44.689Z,9.60
2017-11-01T10:29:12.271Z,8.73
2017-11-01T10:31:39.775Z,8.20
2017-11-01T10:34:07.294Z,8.03
2017-11-01T10:36:34.859Z,9.73
2017-11-01T10:39:02.396Z,8.43
2017-11-01T10:41:30.705Z,10.00
2017-11-01T10:43:59.028Z,8.73
2017-11-01T10:46:26.553Z,9.17
2017-11-01T10:48:54.085Z,9.10
2017-11-01T10:51:21.662Z,8.73
2017-11-01T10:53:49.176Z,10.37
2017-11-01T10:56:16.722Z,8.33
2017-11-01T10:58:44.237Z,8.50
2017-11-01T11:01:11.805Z,9.37
2017-11-01T11:03:39.363Z,8.83
2017-11-01T11:06:06.921Z,8.10
2017-11-01T11:08:34.430Z,10.00
2017-11-01T11:11:01.951Z,8.93
2017-11-01T11:13:29.526Z,10.83
2017-11-01T11:15:57.100Z,10.00
2017-11-01T11:18:24.666Z,11.20
2017-11-01T11:20:52.959Z,10.20
2017-11-01T11:23:21.291Z,9.90
2017-11-01T11:25:48.803Z,10.13
2017-11-01T11:28:17.100Z,9.20
2017-11-01T11:30:44.662Z,9.87
2017-11-01T11:33:12.194Z,9.43
2017-11-01T11:35:39.782Z,8.30
2017-11-01T11:38:07.288Z,10.00
2017-11-01T11:40:34.853Z,7.60
2017-11-01T11:43:02.406Z,9.00
2017-11-01T11:45:29.907Z,8.20
2017-11-01T11:47:57.413Z,7.70
2017-11-01T11:50:24.963Z,7.90
2017-11-01T11:52:53.271Z,8.57
2017-11-01T11:55:20.824Z,7.10
2017-11-01T11:57:48.335Z,7.80
2017-11-01T12:00:15.986Z,7.20
2017-11-01T12:02:43.524Z,7.63
2017-11-01T12:05:11.059Z,8.23
2017-11-01T12:07:38.594Z,7.60
2017-11-01T12:10:06.104Z,8.53
2017-11-01T12:12:33.670Z,7.80
2017-11-01T12:15:01.213Z,6.23
2017-11-01T12:17:28.708Z,6.80
2017-11-01T12:19:56.203Z,7.53
2017-11-01T12:22:23.804Z,6.33
2017-11-01T12:24:51.361Z,7.30
2017-11-01T12:27:18.873Z,6.60
2017-11-01T12:29:46.425Z,5.20
2017-11-01T12:32:14.020Z,5.10
2017-11-01T12:34:41.524Z,6.13
2017-11-01T12:37:09.035Z,6.10
2017-11-01T12:39:36.599Z,6.83
2017-11-01T12:42:04.156Z,6.13
2017-11-01T12:44:31.716Z,6.70
2017-11-01T12:46:59.217Z,6.67
2017-11-01T12:49:26.768Z,5.70
2017-11-01T12:51:54.279Z,5.10
2017-11-01T12:54:21.825Z,5.43
2017-11-01T12:56:49.362Z,5.30
2017-11-01T12:59:16.889Z,5.20
2017-11-01T13:01:45.178Z,4.20
2017-11-01T13:04:13.505Z,4.53
2017-11-01T13:06:41.004Z,4.83
2017-11-01T13:09:08.500Z,4.80
2017-11-01T13:11:36.025Z,5.00
2017-11-01T13:14:04.325Z,5.53
2017-11-01T13:16:32.622Z,5.30
2017-11-01T13:19:00.109Z,5.00
2017-11-01T13:21:27.647Z,4.57
2017-11-01T13:23:55.170Z,5.00
2017-11-01T13:26:22.714Z,5.70
2017-11-01T13:28:50.644Z,5.40
2017-11-01T13:31:18.150Z,5.50
2017-11-01T13:33:45.655Z,4.53
2017-11-01T13:36:13.976Z,4.30
2017-11-01T13:38:41.553Z,4.87
2017-11-01T13:41:09.055Z,4.50
2017-11-01T13:43:36.603Z,5.10
2017-11-01T13:46:04.102Z,4.87
2017-11-01T13:48:32.371Z,4.70
2017-11-01T13:50:59.905Z,3.77
2017-11-01T13:53:27.455Z,4.57
2017-11-01T13:55:54.945Z,4.43
2017-11-01T13:58:22.443Z,4.10
2017-11-01T14:00:49.976Z,4.40
2017-11-01T14:03:17.524Z,5.23
2017-11-01T14:05:45.024Z,3.83
2017-11-01T14:08:12.553Z,3.80
2017-11-01T14:10:40.047Z,4.43
2017-11-01T14:13:08.352Z,3.50
2017-11-01T14:15:35.926Z,4.80
2017-11-01T14:18:03.458Z,4.13
2017-11-01T14:20:31.725Z,4.70
2017-11-01T14:22:59.249Z,4.07
2017-11-01T14:25:26.746Z,3.70
2017-11-01T14:27:54.297Z,3.90
2017-11-01T14:30:21.816Z,3.60
2017-11-01T14:32:49.387Z,4.13
2017-11-01T14:35:16.964Z,3.80
2017-11-01T14:37:44.488Z,4.23
2017-11-01T14:40:12.775Z,3.53
2017-11-01T14:42:41.104Z,3.40
2017-11-01T14:45:08.622Z,3.70
2017-11-01T14:47:36.147Z,4.00
2017-11-01T14:50:03.716Z,3.53
2017-11-01T14:52:31.287Z,3.57
2017-11-01T14:54:58.833Z,4.23
2017-11-01T14:57:26.429Z,3.50
2017-11-01T14:59:53.982Z,3.60
2017-11-01T15:02:21.504Z,5.27
2017-11-01T15:04:49.215Z,6.37
2017-11-01T15:07:16.764Z,21.90
2017-11-01T15:09:44.266Z,4.53
2017-11-01T15:12:11.779Z,4.23
2017-11-01T15:14:39.338Z,4.03
2017-11-01T15:17:06.859Z,3.50
2017-11-01T15:19:35.284Z,2.90
2017-11-01T15:22:02.796Z,2.87
2017-11-01T15:24:30.346Z,3.37
2017-11-01T15:26:57.860Z,3.30
2017-11-01T15:29:25.408Z,3.00
2017-11-01T15:31:53.684Z,3.90
2017-11-01T15:34:22.010Z,3.77
2017-11-01T15:36:49.522Z,3.43
2017-11-01T15:39:17.857Z,2.80
2017-11-01T15:41:51.995Z,3.13
2017-11-01T15:44:19.881Z,3.13
2017-11-01T15:46:47.534Z,3.90
2017-11-01T15:49:15.232Z,4.30
2017-11-01T15:51:43.530Z,4.60
2017-11-01T15:54:11.056Z,3.77
2017-11-01T15:56:38.585Z,4.47
2017-11-01T15:59:06.117Z,2.97
2017-11-01T16:01:33.633Z,3.50
2017-11-01T16:04:01.132Z,3.60
2017-11-01T16:06:29.433Z,2.90
2017-11-01T16:08:56.952Z,3.70
2017-11-01T16:11:24.493Z,3.47
2017-11-01T16:13:51.984Z,3.07
2017-11-01T16:16:19.487Z,2.80
2017-11-01T16:18:47.029Z,2.87
2017-11-01T16:21:15.316Z,3.40
2017-11-01T16:23:43.613Z,3.67
2017-11-01T16:26:11.121Z,3.17
2017-11-01T16:28:38.642Z,3.10
2017-11-01T16:31:06.169Z,3.20
2017-11-01T16:33:33.666Z,3.70
2017-11-01T16:36:01.210Z,3.67
2017-11-01T16:38:28.746Z,3.87
2017-11-01T16:40:56.299Z,4.40
2017-11-01T16:43:23.807Z,3.97
2017-11-01T16:45:52.125Z,4.30
2017-11-01T16:48:19.654Z,4.10
2017-11-01T16:50:47.931Z,3.80
2017-11-01T16:53:15.468Z,4.50
2017-11-01T16:55:43.032Z,3.43
2017-11-01T16:58:10.553Z,4.07
2017-11-01T17:00:38.068Z,3.27
2017-11-01T17:03:05.605Z,2.60
2017-11-01T17:05:33.135Z,3.17
2017-11-01T17:08:00.666Z,3.30
2017-11-01T17:10:28.187Z,3.13
2017-11-01T17:12:55.686Z,2.70
2017-11-01T17:15:23.238Z,3.13
2017-11-01T17:17:50.770Z,2.80
2017-11-01T17:20:18.310Z,3.97
2017-11-01T17:22:46.642Z,4.13
2017-11-01T17:25:14.177Z,4.87
2017-11-01T17:27:41.733Z,6.20
2017-11-01T17:30:09.226Z,5.20
2017-11-01T17:32:36.747Z,4.80
2017-11-01T17:35:04.316Z,4.97
2017-11-01T17:37:31.881Z,5.87
2017-11-01T17:40:00.195Z,5.20
2017-11-01T17:42:27.682Z,6.47
2017-11-01T17:44:55.224Z,7.57
2017-11-01T17:47:22.736Z,10.20
2017-11-01T17:49:50.309Z,8.80
2017-11-01T17:52:17.865Z,7.13
2017-11-01T17:54:45.380Z,5.87
2017-11-01T17:57:12.869Z,5.80
2017-11-01T17:59:40.399Z,6.30
2017-11-01T18:02:08.435Z,30.20
2017-11-01T18:04:35.962Z,5.70
2017-11-01T18:07:03.607Z,6.07
2017-11-01T18:09:31.180Z,6.13
2017-11-01T18:11:58.724Z,6.50
2017-11-01T18:14:26.239Z,5.87
2017-11-01T18:16:53.797Z,6.80
2017-11-01T18:19:21.291Z,5.40
2017-11-01T18:21:48.782Z,5.33
2017-11-01T18:24:17.245Z,4.93
2017-11-01T18:26:45.575Z,5.20
2017-11-01T18:29:13.092Z,5.63
2017-11-01T18:31:41.350Z,5.70
2017-11-01T18:34:08.906Z,7.60
2017-11-01T18:36:36.417Z,6.13
2017-11-01T18:39:04.477Z,6.20
2017-11-01T18:41:32.755Z,7.47
2017-11-01T18:44:01.037Z,7.00
2017-11-01T18:46:28.570Z,7.00
2017-11-01T18:48:56.070Z,6.60
2017-11-01T18:51:23.613Z,9.07
2017-11-01T18:53:51.946Z,9.87
2017-11-01T18:56:19.457Z,9.40
2017-11-01T18:58:46.948Z,8.00
2017-11-01T19:01:15.267Z,6.70
2017-11-01T19:03:42.799Z,7.07
2017-11-01T19:06:11.090Z,6.63
2017-11-01T19:08:38.630Z,5.90
2017-11-01T19:11:06.935Z,6.03
2017-11-01T19:13:34.473Z,6.20
2017-11-01T19:16:02.024Z,8.37
2017-11-01T19:18:29.589Z,7.20
2017-11-01T19:20:57.153Z,9.40
2017-11-01T19:23:24.648Z,7.10
2017-11-01T19:25:52.953Z,7.73
2017-11-01T19:28:20.483Z,8.20
2017-11-01T19:30:48.804Z,6.90
2017-11-01T19:33:16.325Z,6.67
2017-11-01T19:35:44.610Z,7.00
2017-11-01T19:38:12.945Z,8.10
2017-11-01T19:40:40.442Z,7.50
2017-11-01T19:43:08.010Z,9.60
2017-11-01T19:45:35.520Z,8.80
2017-11-01T19:48:03.095Z,8.73
2017-11-01T19:50:30.602Z,9.37
2017-11-01T19:52:58.176Z,12.80
2017-11-01T19:55:26.494Z,10.77
2017-11-01T19:57:54.007Z,11.60
2017-11-01T20:00:21.562Z,11.63
2017-11-01T20:02:49.053Z,12.13
2017-11-01T20:05:17.322Z,13.37
2017-11-01T20:07:45.226Z,10.73
2017-11-01T20:10:12.741Z,12.27
2017-11-01T20:12:40.252Z,10.60
2017-11-01T20:15:07.852Z,12.77
2017-11-01T20:17:35.388Z,10.63
2017-11-01T20:20:02.912Z,10.00
2017-11-01T20:22:30.483Z,11.60
2017-11-01T20:24:57.983Z,10.83
2017-11-01T20:27:25.521Z,9.27
2017-11-01T20:29:53.797Z,9.27
2017-11-01T20:32:21.300Z,9.70
2017-11-01T20:34:48.856Z,9.50
2017-11-01T20:37:16.370Z,9.17
2017-11-01T20:39:43.884Z,8.77
2017-11-01T20:42:11.415Z,9.93
2017-11-01T20:44:38.943Z,10.10
2017-11-01T20:47:06.436Z,10.33
2017-11-01T20:49:33.969Z,11.20
2017-11-01T20:52:01.496Z,10.13
2017-11-01T20:54:29.040Z,10.10
2017-11-01T20:56:57.338Z,11.13
2017-11-01T20:59:24.908Z,10.80
2017-11-01T21:01:52.445Z,11.27
2017-11-01T21:04:19.962Z,13.77
2017-11-01T21:06:47.501Z,13.77
2017-11-01T21:09:15.018Z,12.97
2017-11-01T21:11:42.560Z,12.00
2017-11-01T21:14:10.077Z,10.70
2017-11-01T21:16:37.592Z,11.60
2017-11-01T21:19:05.152Z,11.67
2017-11-01T21:21:32.648Z,11.80
2017-11-01T21:24:00.210Z,13.00
2017-11-01T21:26:27.706Z,12.03
2017-11-01T21:28:55.225Z,11.30
2017-11-01T21:31:22.752Z,9.83
2017-11-01T21:33:50.249Z,10.60
2017-11-01T21:36:17.789Z,11.77
2017-11-01T21:38:45.338Z,9.37
2017-11-01T21:41:12.890Z,11.17
2017-11-01T21:43:41.166Z,11.57
2017-11-01T21:46:08.704Z,11.50
2017-11-01T21:48:36.213Z,11.80
2017-11-01T21:51:03.764Z,11.67
2017-11-01T21:53:31.266Z,12.70
2017-11-01T21:55:58.793Z,13.40
2017-11-01T21:58:27.099Z,14.60
2017-11-01T22:00:54.720Z,13.63
2017-11-01T22:03:22.214Z,12.17
2017-11-01T22:05:49.764Z,10.70
2017-11-01T22:08:18.049Z,10.10
2017-11-01T22:10:45.592Z,12.40
2017-11-01T22:13:13.132Z,12.00
2017-11-01T22:15:40.642Z,12.00
2017-11-01T22:18:08.184Z,8.73
2017-11-01T22:20:35.718Z,8.30
2017-11-01T22:23:03.234Z,9.27
2017-11-01T22:25:31.532Z,9.20
2017-11-01T22:27:59.044Z,8.90
2017-11-01T22:30:26.601Z,7.67
2017-11-01T22:32:54.109Z,8.10
2017-11-01T22:35:21.596Z,7.20
2017-11-01T22:40:22.063Z,6.97
2017-11-01T22:42:49.563Z,6.07
2017-11-01T22:45:17.079Z,5.73
2017-11-01T22:47:44.618Z,7.90
2017-11-01T22:50:12.144Z,6.33
2017-11-01T22:52:39.685Z,6.73
2017-11-01T22:55:07.433Z,6.70
2017-11-01T22:57:34.983Z,6.40
2017-11-01T23:00:02.487Z,6.67
2017-11-01T23:02:30.076Z,6.77
2017-11-01T23:04:57.632Z,8.07
2017-11-01T23:07:25.131Z,7.80
2017-11-01T23:09:53.404Z,7.20
2017-11-01T23:12:21.699Z,7.37
2017-11-01T23:14:49.269Z,7.20
2017-11-01T23:17:16.790Z,7.47
2017-11-01T23:19:44.301Z,6.80
2017-11-01T23:22:11.857Z,6.90
2017-11-01T23:24:39.429Z,6.97
2017-11-01T23:27:06.952Z,6.20
2017-11-01T23:29:34.490Z,6.57
2017-11-01T23:32:02.329Z,7.63
2017-11-01T23:34:29.874Z,6.83
2017-11-01T23:36:58.807Z,7.77
2017-11-01T23:39:26.345Z,6.83
2017-11-01T23:41:53.977Z,7.70
2017-11-01T23:44:21.502Z,6.47
2017-11-01T23:46:49.046Z,7.23
2017-11-01T23:49:16.558Z,7.20
2017-11-01T23:51:44.092Z,6.43
2017-11-01T23:54:11.650Z,6.87
2017-11-01T23:56:39.194Z,8.00
2017-11-01T23:59:06.739Z,7.70
